Fahri Eksioglu — TCUH — position and weather

sailwx.info

Track history (hours):
 
Tides and Currents Weather Stations Pressure Air Temp Water Temp Dewpoint Dewpoint Depression Visibility Wind Speed Wind Dir Waves Ship Positions

Fahri Eksioglu

Last reported at 2015-May-24 02:25 UTC. Time now 2015-May-25 13:33 UTC.
Position N 36°53' E 013°44'.

Length 89 m; draft 5.7 m.

Type: Cargo ship. MMSI: 271000450.

Date/timePositionNaut miles runAvg speedWind from/ knotsBaromVisibWave heightAir tempDewpointWater temp
2015-May-24 02:25N 36°53' E 013°44'7 7.8
2015-May-24 01:33N 36°51' E 013°52'8 8.1
2015-May-24 00:33N 36°50' E 014°02'8 7.8
2015-May-23 23:33N 36°47' E 014°10'7 7.2
2015-May-23 22:33N 36°44' E 014°19'7 6.9
2015-May-23 21:33N 36°42' E 014°27'  
2015-May-18 18:05N 41°22' E 029°19'6 9.0
2015-May-18 17:23N 41°24' E 029°27'8 8.9
2015-May-18 16:32N 41°27' E 029°36'241 8.6
2015-May-17 12:24N 43°20' E 034°24'7 8.4
2015-May-17 11:33N 43°24' E 034°32'8 8.4
2015-May-17 10:33N 43°28' E 034°42'9 8.4
2015-May-17 09:32N 43°32' E 034°53'125 8.6
2015-May-16 19:07N 44°29' E 037°27'5 8.6
2015-May-16 18:31N 44°31' E 037°33'8 8.7
2015-May-16 17:33N 44°35' E 037°44'7 7.3
2015-May-16 16:33N 44°41' E 037°49'3 2.3
2015-May-16 15:28N 44°43' E 037°48'0 0.0
2015-May-16 14:32N 44°43' E 037°48'0 0.0
2015-May-16 13:33N 44°43' E 037°48'0 0.0
2015-May-16 12:32N 44°43' E 037°48'0 0.0
2015-May-16 11:32N 44°43' E 037°48'0 0.0
2015-May-16 10:32N 44°43' E 037°48'0 0.0
2015-May-16 09:29N 44°43' E 037°48'0 0.0
2015-May-16 08:32N 44°43' E 037°48'0 0.0
2015-May-16 07:31N 44°43' E 037°48'0 0.0
2015-May-16 06:32N 44°43' E 037°48'0 0.0
2015-May-16 05:32N 44°43' E 037°48'0 0.0
2015-May-16 04:31N 44°43' E 037°48'0 0.0
2015-May-16 03:31N 44°43' E 037°48'0 0.0
2015-May-16 02:31N 44°43' E 037°48'0 0.0
2015-May-16 01:33N 44°43' E 037°48'0 0.0
2015-May-16 00:32N 44°43' E 037°48'0 0.0
2015-May-15 23:33N 44°43' E 037°48'0 0.0
2015-May-15 22:33N 44°43' E 037°48'0 0.0
2015-May-15 21:31N 44°43' E 037°48'0 0.0
2015-May-15 20:33N 44°43' E 037°48'0 0.0
2015-May-15 19:33N 44°43' E 037°48'0 0.0
2015-May-15 18:31N 44°43' E 037°48'0 0.0
2015-May-15 17:33N 44°43' E 037°48'0 0.0
2015-May-15 16:31N 44°43' E 037°48'0 0.0
2015-May-15 15:32N 44°43' E 037°48'0 0.1
2015-May-15 14:33N 44°43' E 037°48'6 5.5
2015-May-15 13:34N 44°39' E 037°52'1 1.4
2015-May-15 12:32N 44°39' E 037°54'0 0.0
2015-May-15 11:33N 44°39' E 037°54'0 0.0
2015-May-15 10:33N 44°39' E 037°54'0 0.0
2015-May-15 09:32N 44°39' E 037°54'0 0.0
2015-May-15 08:33N 44°39' E 037°54'0 0.0
2015-May-15 07:32N 44°39' E 037°54'0 0.0
2015-May-15 06:32N 44°39' E 037°54'0 0.0
2015-May-15 05:32N 44°39' E 037°54'0 0.0
2015-May-15 04:33N 44°39' E 037°54'0 0.1
2015-May-15 03:32N 44°39' E 037°54'0 0.0
2015-May-15 02:31N 44°39' E 037°54'0 0.0
2015-May-15 01:31N 44°39' E 037°54'0 0.0
2015-May-15 00:33N 44°39' E 037°54'0 0.0
2015-May-14 23:33N 44°39' E 037°54'0 0.0
2015-May-14 22:31N 44°39' E 037°54'0 0.0
2015-May-14 21:33N 44°39' E 037°54'0 0.0
2015-May-14 20:33N 44°39' E 037°54'0 0.0
2015-May-14 19:33N 44°39' E 037°54'0 0.0
2015-May-14 18:32N 44°39' E 037°54'0 0.0
2015-May-14 17:33N 44°39' E 037°54'0 0.0
2015-May-14 16:33N 44°39' E 037°54'0 0.0
2015-May-14 15:33N 44°39' E 037°54'0 0.0
2015-May-14 14:31N 44°39' E 037°54'0 0.0
2015-May-14 13:33N 44°39' E 037°54'0 0.0
2015-May-14 12:33N 44°39' E 037°54'0 0.0
2015-May-14 11:31N 44°39' E 037°54'0 0.0
2015-May-14 10:31N 44°39' E 037°54'0 0.0
2015-May-14 09:33N 44°39' E 037°54'0 0.0
2015-May-14 08:32N 44°39' E 037°54'0 0.0
2015-May-14 07:31N 44°39' E 037°54'0 0.0
2015-May-14 06:32N 44°39' E 037°54'0 0.0
2015-May-14 05:33N 44°39' E 037°54'0 0.0
2015-May-14 04:30N 44°39' E 037°54'0 0.0
2015-May-14 03:32N 44°39' E 037°54'0 0.0
2015-May-14 02:33N 44°39' E 037°54'  
Track history (hours):
 
Tides and Currents Weather Stations Pressure Air Temp Water Temp Dewpoint Dewpoint Depression Visibility Wind Speed Wind Dir Waves Ship Positions

Fahri Eksioglu

Last reported at 2015-May-24 02:25 UTC. Time now 2015-May-25 13:33 UTC.
Position N 36°53' E 013°44'.

Length 89 m; draft 5.7 m.

Type: Cargo ship. MMSI: 271000450.

Date/timePositionNaut miles runAvg speedWind from/ knotsBaromVisibWave heightAir tempDewpointWater temp
2015-May-24 02:25N 36°53' E 013°44'7 7.8
2015-May-24 01:33N 36°51' E 013°52'8 8.1
2015-May-24 00:33N 36°50' E 014°02'8 7.8
2015-May-23 23:33N 36°47' E 014°10'7 7.2
2015-May-23 22:33N 36°44' E 014°19'7 6.9
2015-May-23 21:33N 36°42' E 014°27'  
2015-May-18 18:05N 41°22' E 029°19'6 9.0
2015-May-18 17:23N 41°24' E 029°27'8 8.9
2015-May-18 16:32N 41°27' E 029°36'241 8.6
2015-May-17 12:24N 43°20' E 034°24'7 8.4
2015-May-17 11:33N 43°24' E 034°32'8 8.4
2015-May-17 10:33N 43°28' E 034°42'9 8.4
2015-May-17 09:32N 43°32' E 034°53'125 8.6
2015-May-16 19:07N 44°29' E 037°27'5 8.6
2015-May-16 18:31N 44°31' E 037°33'8 8.7
2015-May-16 17:33N 44°35' E 037°44'7 7.3
2015-May-16 16:33N 44°41' E 037°49'3 2.3
2015-May-16 15:28N 44°43' E 037°48'0 0.0
2015-May-16 14:32N 44°43' E 037°48'0 0.0
2015-May-16 13:33N 44°43' E 037°48'0 0.0
2015-May-16 12:32N 44°43' E 037°48'0 0.0
2015-May-16 11:32N 44°43' E 037°48'0 0.0
2015-May-16 10:32N 44°43' E 037°48'0 0.0
2015-May-16 09:29N 44°43' E 037°48'0 0.0
2015-May-16 08:32N 44°43' E 037°48'0 0.0
2015-May-16 07:31N 44°43' E 037°48'0 0.0
2015-May-16 06:32N 44°43' E 037°48'0 0.0
2015-May-16 05:32N 44°43' E 037°48'0 0.0
2015-May-16 04:31N 44°43' E 037°48'0 0.0
2015-May-16 03:31N 44°43' E 037°48'0 0.0
2015-May-16 02:31N 44°43' E 037°48'0 0.0
2015-May-16 01:33N 44°43' E 037°48'0 0.0
2015-May-16 00:32N 44°43' E 037°48'0 0.0
2015-May-15 23:33N 44°43' E 037°48'0 0.0
2015-May-15 22:33N 44°43' E 037°48'0 0.0
2015-May-15 21:31N 44°43' E 037°48'0 0.0
2015-May-15 20:33N 44°43' E 037°48'0 0.0
2015-May-15 19:33N 44°43' E 037°48'0 0.0
2015-May-15 18:31N 44°43' E 037°48'0 0.0
2015-May-15 17:33N 44°43' E 037°48'0 0.0
2015-May-15 16:31N 44°43' E 037°48'0 0.0
2015-May-15 15:32N 44°43' E 037°48'0 0.1
2015-May-15 14:33N 44°43' E 037°48'6 5.5
2015-May-15 13:34N 44°39' E 037°52'1 1.4
2015-May-15 12:32N 44°39' E 037°54'0 0.0
2015-May-15 11:33N 44°39' E 037°54'0 0.0
2015-May-15 10:33N 44°39' E 037°54'0 0.0
2015-May-15 09:32N 44°39' E 037°54'0 0.0
2015-May-15 08:33N 44°39' E 037°54'0 0.0
2015-May-15 07:32N 44°39' E 037°54'0 0.0
2015-May-15 06:32N 44°39' E 037°54'0 0.0
2015-May-15 05:32N 44°39' E 037°54'0 0.0
2015-May-15 04:33N 44°39' E 037°54'0 0.1
2015-May-15 03:32N 44°39' E 037°54'0 0.0
2015-May-15 02:31N 44°39' E 037°54'0 0.0
2015-May-15 01:31N 44°39' E 037°54'0 0.0
2015-May-15 00:33N 44°39' E 037°54'0 0.0
2015-May-14 23:33N 44°39' E 037°54'0 0.0
2015-May-14 22:31N 44°39' E 037°54'0 0.0
2015-May-14 21:33N 44°39' E 037°54'0 0.0
2015-May-14 20:33N 44°39' E 037°54'0 0.0
2015-May-14 19:33N 44°39' E 037°54'0 0.0
2015-May-14 18:32N 44°39' E 037°54'0 0.0
2015-May-14 17:33N 44°39' E 037°54'0 0.0
2015-May-14 16:33N 44°39' E 037°54'0 0.0
2015-May-14 15:33N 44°39' E 037°54'0 0.0
2015-May-14 14:31N 44°39' E 037°54'0 0.0
2015-May-14 13:33N 44°39' E 037°54'0 0.0
2015-May-14 12:33N 44°39' E 037°54'0 0.0
2015-May-14 11:31N 44°39' E 037°54'0 0.0
2015-May-14 10:31N 44°39' E 037°54'0 0.0
2015-May-14 09:33N 44°39' E 037°54'0 0.0
2015-May-14 08:32N 44°39' E 037°54'0 0.0
2015-May-14 07:31N 44°39' E 037°54'0 0.0
2015-May-14 06:32N 44°39' E 037°54'0 0.0
2015-May-14 05:33N 44°39' E 037°54'0 0.0
2015-May-14 04:30N 44°39' E 037°54'0 0.0
2015-May-14 03:32N 44°39' E 037°54'0 0.0
2015-May-14 02:33N 44°39' E 037°54'  

Dump ship's entire track history